createdAt,value
2018-05-15T00:02:04.429Z,101199.94
2018-05-15T00:04:31.965Z,101204.71
2018-05-15T00:06:59.496Z,101201.51
2018-05-15T00:09:27.017Z,101208.28
2018-05-15T00:11:54.554Z,101201.67
2018-05-15T00:14:22.084Z,101203.21
2018-05-15T00:16:49.607Z,101214.24
2018-05-15T00:19:17.141Z,101213.11
2018-05-15T00:21:44.681Z,101215.84
2018-05-15T00:24:12.210Z,101205.70
2018-05-15T00:26:39.737Z,101208.48
2018-05-15T00:29:07.272Z,101202.00
2018-05-15T00:31:34.793Z,101195.84
2018-05-15T00:34:02.316Z,101194.39
2018-05-15T00:36:29.857Z,101188.42
2018-05-15T00:38:57.366Z,101192.11
2018-05-15T00:41:24.880Z,101193.70
2018-05-15T00:43:52.404Z,101184.66
2018-05-15T00:46:19.935Z,101185.68
2018-05-15T00:48:47.456Z,101185.48
2018-05-15T00:51:14.997Z,101184.69
2018-05-15T00:53:42.518Z,101178.45
2018-05-15T00:56:10.049Z,101182.76
2018-05-15T00:58:37.576Z,101177.09
2018-05-15T01:01:05.126Z,101180.77
2018-05-15T01:03:32.649Z,101178.96
2018-05-15T01:06:00.171Z,101182.53
2018-05-15T01:08:27.696Z,101183.95
2018-05-15T01:10:55.236Z,101185.71
2018-05-15T01:13:22.754Z,101182.34
2018-05-15T01:15:50.280Z,101172.05
2018-05-15T01:18:17.810Z,101178.22
2018-05-15T01:20:45.331Z,101171.91
2018-05-15T01:23:12.869Z,101170.44
2018-05-15T01:25:40.393Z,101171.61
2018-05-15T01:28:07.916Z,101167.55
2018-05-15T01:30:35.438Z,101167.03
2018-05-15T01:33:02.967Z,101169.63
2018-05-15T01:35:30.493Z,101170.72
2018-05-15T01:37:58.031Z,101166.22
2018-05-15T01:40:25.552Z,101170.72
2018-05-15T01:42:53.077Z,101164.51
2018-05-15T01:45:20.617Z,101168.12
2018-05-15T01:47:48.149Z,101166.34
2018-05-15T01:50:15.684Z,101163.70
2018-05-15T01:52:43.208Z,101170.56
2018-05-15T01:55:10.743Z,101163.38
2018-05-15T01:57:38.288Z,101162.59
2018-05-15T02:00:05.825Z,101166.65
2018-05-15T02:02:33.340Z,101166.32
2018-05-15T02:05:00.873Z,101167.37
2018-05-15T02:07:28.402Z,101170.51
2018-05-15T02:09:55.911Z,101166.12
2018-05-15T02:12:23.443Z,101170.69
2018-05-15T02:14:50.973Z,101171.55
2018-05-15T02:17:18.501Z,101170.76
2018-05-15T02:19:46.027Z,101171.52
2018-05-15T02:22:13.556Z,101170.45
2018-05-15T02:24:41.080Z,101167.62
2018-05-15T02:27:08.596Z,101172.06
2018-05-15T02:29:36.131Z,101163.00
2018-05-15T02:32:03.643Z,101162.41
2018-05-15T02:34:31.175Z,101161.48
2018-05-15T02:36:58.692Z,101165.22
2018-05-15T02:39:26.215Z,101166.80
2018-05-15T02:41:53.811Z,101153.75
2018-05-15T02:44:21.283Z,101160.36
2018-05-15T02:46:48.812Z,101155.56
2018-05-15T02:49:16.332Z,101163.96
2018-05-15T02:51:43.864Z,101161.20
2018-05-15T02:54:11.379Z,101157.47
2018-05-15T02:56:38.896Z,101152.42
2018-05-15T02:59:06.424Z,101155.09
2018-05-15T03:01:33.949Z,101149.04
2018-05-15T03:04:01.489Z,101151.44
2018-05-15T03:06:29.015Z,101151.58
2018-05-15T03:08:56.543Z,101145.24
2018-05-15T03:11:24.063Z,101144.02
2018-05-15T03:13:51.593Z,101150.08
2018-05-15T03:16:19.108Z,101156.48
2018-05-15T03:18:46.641Z,101148.80
2018-05-15T03:21:14.165Z,101156.27
2018-05-15T03:23:41.694Z,101155.83
2018-05-15T03:26:09.226Z,101159.72
2018-05-15T03:28:36.749Z,101168.17
2018-05-15T03:31:04.273Z,101173.05
2018-05-15T03:33:31.796Z,101165.42
2018-05-15T03:35:59.325Z,101162.22
2018-05-15T03:38:26.850Z,101154.69
2018-05-15T03:40:54.359Z,101151.06
2018-05-15T03:43:21.873Z,101155.45
2018-05-15T03:45:49.393Z,101155.47
2018-05-15T03:48:16.915Z,101159.45
2018-05-15T03:50:44.440Z,101161.36
2018-05-15T03:53:12.004Z,101156.05
2018-05-15T03:55:39.528Z,101164.50
2018-05-15T03:58:07.068Z,101152.69
2018-05-15T04:00:46.251Z,101153.34
2018-05-15T04:03:25.761Z,101145.78
2018-05-15T04:06:05.226Z,101151.67
2018-05-15T04:08:32.821Z,101152.42
2018-05-15T04:11:00.363Z,101157.02
2018-05-15T04:13:27.883Z,101158.86
2018-05-15T04:15:55.410Z,101156.03
2018-05-15T04:18:22.936Z,101157.17
2018-05-15T04:20:50.461Z,101157.77
2018-05-15T04:23:18.003Z,101154.41
2018-05-15T04:25:45.540Z,101158.58
2018-05-15T04:28:13.172Z,101156.52
2018-05-15T04:30:40.623Z,101150.88
2018-05-15T04:33:08.163Z,101149.28
2018-05-15T04:35:35.715Z,101145.55
2018-05-15T04:38:03.242Z,101142.49
2018-05-15T04:40:30.795Z,101145.96
2018-05-15T04:42:58.324Z,101141.63
2018-05-15T04:45:25.852Z,101134.98
2018-05-15T04:47:53.374Z,101138.88
2018-05-15T04:50:20.906Z,101138.55
2018-05-15T04:52:48.430Z,101144.99
2018-05-15T04:55:15.976Z,101146.06
2018-05-15T04:57:43.958Z,101152.39
2018-05-15T05:00:11.480Z,101153.03
2018-05-15T05:02:39.009Z,101144.83
2018-05-15T05:05:06.530Z,101150.17
2018-05-15T05:07:34.064Z,101153.93
2018-05-15T05:10:01.589Z,101156.53
2018-05-15T05:12:29.117Z,101158.77
2018-05-15T05:14:56.734Z,101146.23
2018-05-15T05:17:24.270Z,101154.12
2018-05-15T05:19:51.790Z,101155.97
2018-05-15T05:22:19.341Z,101153.45
2018-05-15T05:24:46.871Z,101151.70
2018-05-15T05:27:14.414Z,101144.78
2018-05-15T05:29:41.961Z,101148.25
2018-05-15T05:32:09.498Z,101145.37
2018-05-15T05:34:37.050Z,101145.39
2018-05-15T05:37:04.570Z,101145.27
2018-05-15T05:39:32.102Z,101143.61
2018-05-15T05:41:59.636Z,101144.14
2018-05-15T05:44:27.186Z,101141.88
2018-05-15T05:46:54.715Z,101139.94
2018-05-15T05:49:22.238Z,101141.43
2018-05-15T05:51:49.768Z,101142.16
2018-05-15T05:54:17.299Z,101146.40
2018-05-15T05:56:44.828Z,101139.66
2018-05-15T05:59:12.352Z,101138.55
2018-05-15T06:01:39.902Z,101128.44
2018-05-15T06:04:07.434Z,101130.28
2018-05-15T06:06:34.955Z,101137.36
2018-05-15T06:09:02.483Z,101135.74
2018-05-15T06:11:30.009Z,101128.89
2018-05-15T06:13:57.533Z,101129.09
2018-05-15T06:16:25.061Z,101130.11
2018-05-15T06:18:52.593Z,101127.53
2018-05-15T06:21:20.115Z,101132.08
2018-05-15T06:23:47.638Z,101127.23
2018-05-15T06:26:15.167Z,101125.37
2018-05-15T06:28:42.696Z,101123.50
2018-05-15T06:31:10.239Z,101127.88
2018-05-15T06:33:37.760Z,101120.97
2018-05-15T06:36:05.288Z,101123.56
2018-05-15T06:38:32.898Z,101122.24
2018-05-15T06:41:00.380Z,101120.55
2018-05-15T06:43:27.911Z,101113.99
2018-05-15T06:45:55.440Z,101117.70
2018-05-15T06:48:22.984Z,101112.50
2018-05-15T06:50:50.516Z,101104.87
2018-05-15T06:53:18.052Z,101111.42
2018-05-15T06:55:45.585Z,101107.86
2018-05-15T06:58:13.108Z,101107.69
2018-05-15T07:00:40.625Z,101105.13
2018-05-15T07:03:08.157Z,101103.59
2018-05-15T07:05:35.675Z,101099.21
2018-05-15T07:08:03.208Z,101094.45
2018-05-15T07:10:30.747Z,101101.42
2018-05-15T07:12:58.284Z,101087.16
2018-05-15T07:15:25.858Z,101083.82
2018-05-15T07:17:53.885Z,101087.67
2018-05-15T07:20:21.938Z,101087.05
2018-05-15T07:22:49.499Z,101085.78
2018-05-15T07:25:17.035Z,101083.98
2018-05-15T07:27:44.559Z,101080.44
2018-05-15T07:30:12.108Z,101081.55
2018-05-15T07:32:39.653Z,101074.58
2018-05-15T07:35:07.187Z,101068.56
2018-05-15T07:37:34.714Z,101078.45
2018-05-15T07:40:02.232Z,101076.34
2018-05-15T07:42:29.771Z,101071.55
2018-05-15T07:44:57.308Z,101070.28
2018-05-15T07:47:24.827Z,101070.11
2018-05-15T07:49:52.359Z,101073.55
2018-05-15T07:52:19.908Z,101070.72
2018-05-15T07:54:47.434Z,101069.12
2018-05-15T07:57:14.972Z,101068.08
2018-05-15T07:59:42.554Z,101060.48
2018-05-15T08:02:11.348Z,101061.31
2018-05-15T08:04:38.993Z,101062.90
2018-05-15T08:07:06.546Z,101058.61
2018-05-15T08:09:34.117Z,101053.08
2018-05-15T08:12:01.648Z,101052.97
2018-05-15T08:14:29.349Z,101044.43
2018-05-15T08:16:56.905Z,101045.16
2018-05-15T08:19:24.453Z,101039.06
2018-05-15T08:21:51.978Z,101033.41
2018-05-15T08:24:19.500Z,101032.24
2018-05-15T08:26:47.022Z,101027.74
2018-05-15T08:29:14.544Z,101021.77
2018-05-15T08:31:42.124Z,101021.86
2018-05-15T08:34:09.616Z,101020.13
2018-05-15T08:36:37.140Z,101016.49
2018-05-15T08:39:04.655Z,101021.55
2018-05-15T08:41:32.192Z,101025.06
2018-05-15T08:43:59.717Z,101024.10
2018-05-15T08:46:27.245Z,101024.00
2018-05-15T08:48:54.770Z,101021.11
2018-05-15T08:51:22.296Z,101018.33
2018-05-15T08:53:49.824Z,101017.22
2018-05-15T08:56:17.348Z,101018.55
2018-05-15T08:58:44.883Z,101012.23
2018-05-15T09:01:12.434Z,101012.93
2018-05-15T09:03:40.016Z,101015.52
2018-05-15T09:06:07.545Z,101011.70
2018-05-15T09:08:35.183Z,101007.59
2018-05-15T09:11:02.716Z,101010.80
2018-05-15T09:13:30.261Z,101007.50
2018-05-15T09:15:57.832Z,101010.27
2018-05-15T09:18:25.473Z,101007.03
2018-05-15T09:20:52.994Z,101009.90
2018-05-15T09:23:20.517Z,101010.34
2018-05-15T09:25:48.113Z,101007.28
2018-05-15T09:28:15.588Z,101017.02
2018-05-15T09:30:43.116Z,101016.94
2018-05-15T09:33:12.807Z,101016.98
2018-05-15T09:35:40.348Z,101016.31
2018-05-15T09:38:07.880Z,101024.02
2018-05-15T09:40:35.407Z,101023.36
2018-05-15T09:43:02.937Z,101026.68
2018-05-15T09:45:30.527Z,101020.33
2018-05-15T09:47:58.057Z,101025.88
2018-05-15T09:50:25.583Z,101024.99
2018-05-15T09:52:53.207Z,101014.89
2018-05-15T09:55:20.732Z,101019.27
2018-05-15T09:57:48.253Z,101009.87
2018-05-15T10:00:15.786Z,101020.48
2018-05-15T10:02:43.312Z,101024.70
2018-05-15T10:05:10.868Z,101025.73
2018-05-15T10:07:38.458Z,101019.84
2018-05-15T10:10:05.966Z,101035.40
2018-05-15T10:12:33.488Z,101025.30
2018-05-15T10:15:01.024Z,101026.39
2018-05-15T10:17:28.581Z,101025.39
2018-05-15T10:19:56.163Z,101025.91
2018-05-15T10:22:23.665Z,101014.16
2018-05-15T10:24:51.181Z,101022.44
2018-05-15T10:27:18.765Z,101018.73
2018-05-15T10:29:46.230Z,101013.53
2018-05-15T10:32:13.755Z,101012.45
2018-05-15T10:34:41.290Z,101010.09
2018-05-15T10:37:08.811Z,101014.16
2018-05-15T10:39:36.331Z,101015.42
2018-05-15T10:42:03.861Z,101024.05
2018-05-15T10:44:31.521Z,101014.86
2018-05-15T10:46:59.073Z,101009.92
2018-05-15T10:49:26.600Z,101009.36
2018-05-15T10:51:54.137Z,101008.91
2018-05-15T10:54:21.664Z,101001.30
2018-05-15T10:56:49.180Z,101013.28
2018-05-15T10:59:16.713Z,101006.52
2018-05-15T11:01:44.281Z,100998.44
2018-05-15T11:04:11.799Z,101001.83
2018-05-15T11:06:39.431Z,100999.05
2018-05-15T11:09:06.952Z,100991.02
2018-05-15T11:11:34.486Z,100995.64
2018-05-15T11:14:02.007Z,100995.23
2018-05-15T11:16:29.634Z,100990.14
2018-05-15T11:18:57.155Z,100987.76
2018-05-15T11:21:36.539Z,100984.95
2018-05-15T11:27:10.606Z,100979.49
2018-05-15T11:29:38.145Z,100972.27
2018-05-15T11:32:05.664Z,100972.09
2018-05-15T11:34:33.180Z,100975.13
2018-05-15T11:37:00.700Z,100965.62
2018-05-15T11:39:28.227Z,100973.22
2018-05-15T11:41:55.847Z,100966.61
2018-05-15T11:44:23.301Z,100958.11
2018-05-15T11:46:50.832Z,100951.26
2018-05-15T11:49:19.308Z,100953.91
2018-05-15T11:51:47.085Z,100949.80
2018-05-15T11:54:13.487Z,100951.90
2018-05-15T11:56:41.016Z,100944.34
2018-05-15T11:59:08.631Z,100932.67
2018-05-15T12:01:36.161Z,100943.64
2018-05-15T12:04:03.768Z,100938.56
2018-05-15T12:06:31.327Z,100942.37
2018-05-15T12:08:58.878Z,100926.52
2018-05-15T12:11:26.434Z,100936.30
2018-05-15T12:13:53.967Z,100939.38
2018-05-15T12:16:21.556Z,100940.91
2018-05-15T12:18:49.121Z,100934.70
2018-05-15T12:21:16.643Z,100928.05
2018-05-15T12:23:44.165Z,100924.02
2018-05-15T12:26:11.694Z,100924.55
2018-05-15T12:28:39.220Z,100926.77
2018-05-15T12:31:06.813Z,100911.53
2018-05-15T12:33:34.373Z,100910.03
2018-05-15T12:36:01.892Z,100905.66
2018-05-15T12:38:29.461Z,100918.35
2018-05-15T12:40:57.004Z,100909.95
2018-05-15T12:43:24.538Z,100923.56
2018-05-15T12:45:52.056Z,100916.30
2018-05-15T12:48:19.582Z,100909.42
2018-05-15T12:50:47.104Z,100901.37
2018-05-15T12:53:14.619Z,100904.84
2018-05-15T12:55:42.140Z,100907.73
2018-05-15T12:58:09.667Z,100921.33
2018-05-15T13:00:37.212Z,100915.15
2018-05-15T13:03:04.756Z,100907.52
2018-05-15T13:05:32.276Z,100897.23
2018-05-15T13:07:59.798Z,100897.99
2018-05-15T13:10:27.317Z,100902.33
2018-05-15T13:12:54.853Z,100898.73
2018-05-15T13:15:22.368Z,100890.23
2018-05-15T13:17:49.897Z,100889.89
2018-05-15T13:20:17.428Z,100890.94
2018-05-15T13:22:44.955Z,100885.70
2018-05-15T13:25:12.485Z,100879.12
2018-05-15T13:27:40.012Z,100879.50
2018-05-15T13:30:07.537Z,100874.43
2018-05-15T13:32:35.066Z,100884.47
2018-05-15T13:35:02.584Z,100878.49
2018-05-15T13:37:30.099Z,100878.55
2018-05-15T13:39:57.627Z,100878.81
2018-05-15T13:42:25.152Z,100890.70
2018-05-15T13:44:52.698Z,100889.59
2018-05-15T13:47:20.220Z,100890.77
2018-05-15T13:49:47.762Z,100893.23
2018-05-15T13:52:15.284Z,100891.29
2018-05-15T13:54:42.812Z,100886.08
2018-05-15T13:57:10.329Z,100890.91
2018-05-15T13:59:37.855Z,100885.02
2018-05-15T14:02:05.388Z,100885.35
2018-05-15T14:04:32.905Z,100887.60
2018-05-15T14:07:00.423Z,100892.20
2018-05-15T14:09:27.952Z,100892.44
2018-05-15T14:11:55.474Z,100895.65
2018-05-15T14:14:23.070Z,100901.45
2018-05-15T14:16:50.594Z,100896.78
2018-05-15T14:19:18.120Z,100902.29
2018-05-15T14:21:45.648Z,100895.30
2018-05-15T14:24:13.174Z,100891.59
2018-05-15T14:26:40.700Z,100901.81
2018-05-15T14:29:08.228Z,100901.28
2018-05-15T14:31:35.745Z,100907.92
2018-05-15T14:34:03.264Z,100916.93
2018-05-15T14:36:30.789Z,100925.39
2018-05-15T14:38:58.319Z,100932.30
2018-05-15T14:41:37.788Z,100944.23
2018-05-15T14:44:05.324Z,100969.18
2018-05-15T14:46:32.854Z,100978.21
2018-05-15T14:49:01.245Z,100992.17
2018-05-15T14:51:28.792Z,101014.00
2018-05-15T14:53:56.337Z,101033.98
2018-05-15T14:56:24.585Z,101091.80
2018-05-15T14:58:52.137Z,101114.08
2018-05-15T15:01:19.672Z,101112.38
2018-05-15T15:03:47.195Z,101118.05
2018-05-15T15:06:14.724Z,101103.32
2018-05-15T15:08:42.499Z,101097.76
2018-05-15T15:11:09.811Z,101082.72
2018-05-15T15:13:37.332Z,101068.45
2018-05-15T15:16:04.901Z,101066.02
2018-05-15T15:18:32.421Z,101057.98
2018-05-15T15:20:59.944Z,101051.86
2018-05-15T15:23:27.469Z,101058.35
2018-05-15T15:25:54.996Z,101079.22
2018-05-15T15:28:22.604Z,101080.13
2018-05-15T15:30:50.161Z,101068.10
2018-05-15T15:33:17.681Z,101067.53
2018-05-15T15:35:45.212Z,101054.09
2018-05-15T15:38:12.741Z,101067.14
2018-05-15T15:40:40.277Z,101059.31
2018-05-15T15:43:07.788Z,101049.81
2018-05-15T15:45:35.321Z,101047.72
2018-05-15T15:48:02.882Z,101042.89
2018-05-15T15:50:30.405Z,101046.89
2018-05-15T15:52:57.942Z,101039.04
2018-05-15T15:55:25.491Z,101044.78
2018-05-15T15:57:53.016Z,101032.25
2018-05-15T16:00:20.553Z,101015.16
2018-05-15T16:02:48.076Z,101006.64
2018-05-15T16:05:15.623Z,101000.63
2018-05-15T16:07:43.220Z,101004.91
2018-05-15T16:10:10.821Z,100997.59
2018-05-15T16:12:38.319Z,100998.81
2018-05-15T16:15:05.878Z,101002.67
2018-05-15T16:17:33.393Z,100997.20
2018-05-15T16:20:00.919Z,100985.14
2018-05-15T16:22:28.439Z,100980.81
2018-05-15T16:24:55.970Z,100963.55
2018-05-15T16:27:23.495Z,100965.52
2018-05-15T16:29:51.055Z,100962.69
2018-05-15T16:32:18.593Z,100953.09
2018-05-15T16:34:46.128Z,100945.70
2018-05-15T16:37:13.651Z,100942.94
2018-05-15T16:39:41.229Z,100934.77
2018-05-15T16:42:08.776Z,100935.25
2018-05-15T16:44:36.309Z,100925.75
2018-05-15T16:47:03.878Z,100932.46
2018-05-15T16:49:31.412Z,100934.88
2018-05-15T16:51:58.968Z,100945.76
2018-05-15T16:54:26.524Z,100954.51
2018-05-15T16:56:55.906Z,100949.58
2018-05-15T16:59:23.421Z,100954.56
2018-05-15T17:01:50.951Z,100955.67
2018-05-15T17:04:18.496Z,100969.34
2018-05-15T17:06:46.056Z,100990.26
2018-05-15T17:09:13.585Z,101008.19
2018-05-15T17:11:41.130Z,100994.55
2018-05-15T17:14:08.643Z,100975.03
2018-05-15T17:16:36.164Z,100963.20
2018-05-15T17:19:03.697Z,100953.97
2018-05-15T17:21:31.214Z,100948.42
2018-05-15T17:23:58.854Z,100947.34
2018-05-15T17:26:26.372Z,100918.33
2018-05-15T17:28:54.074Z,100876.55
2018-05-15T17:31:21.644Z,100846.46
2018-05-15T17:33:49.157Z,100813.89
2018-05-15T17:36:16.688Z,100831.48
2018-05-15T17:38:44.213Z,100850.25
2018-05-15T17:41:11.734Z,100861.14
2018-05-15T17:43:39.256Z,100867.48
2018-05-15T17:46:06.791Z,100881.19
2018-05-15T17:48:34.317Z,100887.97
2018-05-15T17:51:01.855Z,100895.66
2018-05-15T17:53:29.397Z,100907.43
2018-05-15T17:55:57.039Z,100905.64
2018-05-15T17:58:24.554Z,100906.08
2018-05-15T18:00:52.097Z,100910.95
2018-05-15T18:03:19.656Z,100911.78
2018-05-15T18:05:47.187Z,100915.71
2018-05-15T18:08:14.836Z,100913.23
2018-05-15T18:10:42.391Z,100912.80
2018-05-15T18:13:09.905Z,100913.36
2018-05-15T18:15:37.438Z,100917.57
2018-05-15T18:18:05.066Z,100911.06
2018-05-15T18:20:32.607Z,100905.36
2018-05-15T18:23:00.156Z,100906.53
2018-05-15T18:25:27.755Z,100896.49
2018-05-15T18:27:55.409Z,100896.48
2018-05-15T18:30:22.932Z,100898.98
2018-05-15T18:32:50.475Z,100894.72
2018-05-15T18:35:18.024Z,100905.23
2018-05-15T18:37:45.657Z,100899.57
2018-05-15T18:40:13.188Z,100897.33
2018-05-15T18:42:40.769Z,100896.01
2018-05-15T18:45:08.297Z,100902.27
2018-05-15T18:47:35.861Z,100902.78
2018-05-15T18:50:03.376Z,100911.96
2018-05-15T18:52:31.009Z,100905.23
2018-05-15T18:54:58.544Z,100907.45
2018-05-15T18:57:26.064Z,100907.56
2018-05-15T18:59:53.616Z,100905.07
2018-05-15T19:02:21.182Z,100906.01
2018-05-15T19:04:48.702Z,100912.70
2018-05-15T19:07:16.240Z,100910.59
2018-05-15T19:09:43.761Z,100918.87
2018-05-15T19:12:11.315Z,100926.88
2018-05-15T19:14:38.841Z,100932.83
2018-05-15T19:17:06.368Z,100928.98
2018-05-15T19:19:33.975Z,100930.51
2018-05-15T19:22:01.493Z,100937.87
2018-05-15T19:24:29.084Z,100932.99
2018-05-15T19:26:56.717Z,100936.89
2018-05-15T19:29:24.334Z,100933.26
2018-05-15T19:31:52.829Z,100933.81
2018-05-15T19:34:25.996Z,100937.74
2018-05-15T19:37:13.226Z,100941.16
2018-05-15T19:39:44.796Z,100942.67
2018-05-15T19:42:12.282Z,100946.23
2018-05-15T19:44:39.870Z,100941.48
2018-05-15T19:47:07.400Z,100952.86
2018-05-15T19:49:34.916Z,100947.48
2018-05-15T19:52:02.449Z,100942.02
2018-05-15T19:54:30.113Z,100947.27
2018-05-15T19:56:57.640Z,100950.51
2018-05-15T19:59:25.177Z,100940.52
2018-05-15T20:01:52.919Z,100941.32
2018-05-15T20:04:20.456Z,100944.23
2018-05-15T20:06:48.009Z,100939.33
2018-05-15T20:09:15.586Z,100935.82
2018-05-15T20:11:43.631Z,100942.78
2018-05-15T20:14:11.309Z,100938.19
2018-05-15T20:16:38.904Z,100937.16
2018-05-15T20:19:06.454Z,100935.05
2018-05-15T20:21:34.199Z,100943.22
2018-05-15T20:24:01.736Z,100939.05
2018-05-15T20:26:29.287Z,100938.95
2018-05-15T20:28:56.845Z,100940.36
2018-05-15T20:31:24.369Z,100946.45
2018-05-15T20:33:51.905Z,100946.89
2018-05-15T20:36:19.553Z,100943.75
2018-05-15T20:38:47.077Z,100943.32
2018-05-15T20:41:14.697Z,100943.47
2018-05-15T20:43:42.336Z,100938.13
2018-05-15T20:46:10.012Z,100941.75
2018-05-15T20:48:37.565Z,100946.02
2018-05-15T20:51:05.092Z,100936.08
2018-05-15T20:53:32.611Z,100938.95
2018-05-15T20:56:00.169Z,100944.39
2018-05-15T20:58:27.698Z,100944.66
2018-05-15T21:00:55.224Z,100943.47
2018-05-15T21:03:22.745Z,100942.11
2018-05-15T21:05:50.268Z,100940.64
2018-05-15T21:08:17.892Z,100938.33
2018-05-15T21:10:45.419Z,100932.77
2018-05-15T21:13:13.061Z,100938.69
2018-05-15T21:15:40.590Z,100935.51
2018-05-15T21:18:08.118Z,100932.02
2018-05-15T21:20:35.666Z,100932.89
2018-05-15T21:23:03.193Z,100930.41
2018-05-15T21:25:30.727Z,100934.50
2018-05-15T21:27:58.334Z,100932.22
2018-05-15T21:30:25.865Z,100933.91
2018-05-15T21:32:53.395Z,100933.09
2018-05-15T21:35:21.000Z,100934.11
2018-05-15T21:37:48.546Z,100929.47
2018-05-15T21:40:16.120Z,100928.39
2018-05-15T21:42:43.773Z,100930.62
2018-05-15T21:45:11.333Z,100926.25
2018-05-15T21:47:38.863Z,100924.24
2018-05-15T21:50:06.392Z,100926.41
2018-05-15T21:52:34.017Z,100922.51
2018-05-15T21:55:01.545Z,100931.97
2018-05-15T21:57:29.083Z,100925.23
2018-05-15T21:59:56.678Z,100923.05
2018-05-15T22:02:24.249Z,100926.45
2018-05-15T22:04:51.772Z,100914.31
2018-05-15T22:07:19.327Z,100914.31
2018-05-15T22:09:46.944Z,100907.89
2018-05-15T22:12:26.409Z,100906.60
2018-05-15T22:15:05.741Z,100906.27
2018-05-15T22:17:45.186Z,100914.69
2018-05-15T22:20:24.624Z,100904.82
2018-05-15T22:22:51.619Z,100900.29
2018-05-15T22:25:19.148Z,100900.12
2018-05-15T22:27:46.680Z,100906.33
2018-05-15T22:30:14.213Z,100902.66
2018-05-15T22:32:41.743Z,100909.83
2018-05-15T22:35:09.280Z,100901.36
2018-05-15T22:37:36.811Z,100902.87
2018-05-15T22:40:04.332Z,100903.56
2018-05-15T22:42:31.860Z,100902.98
2018-05-15T22:44:59.395Z,100902.98
2018-05-15T22:47:26.929Z,100911.66
2018-05-15T22:49:54.452Z,100910.78
2018-05-15T22:52:21.972Z,100909.49
2018-05-15T22:54:49.504Z,100904.08
2018-05-15T22:57:17.030Z,100896.65
2018-05-15T22:59:44.551Z,100899.19
2018-05-15T23:02:12.084Z,100899.36
2018-05-15T23:04:39.617Z,100891.80
2018-05-15T23:07:07.146Z,100892.67
2018-05-15T23:09:34.684Z,100892.39
2018-05-15T23:12:02.219Z,100886.98
2018-05-15T23:14:29.764Z,100888.50
2018-05-15T23:16:57.305Z,100889.97
2018-05-15T23:19:24.864Z,100894.34
2018-05-15T23:21:52.394Z,100892.60
2018-05-15T23:24:19.927Z,100886.18
2018-05-15T23:26:47.464Z,100883.61
2018-05-15T23:29:15.004Z,100885.81
2018-05-15T23:31:42.532Z,100883.70
2018-05-15T23:34:10.064Z,100892.97
2018-05-15T23:36:37.583Z,100890.66
2018-05-15T23:39:05.892Z,100885.20
2018-05-15T23:41:33.418Z,100882.52
2018-05-15T23:44:00.947Z,100878.45
2018-05-15T23:46:28.483Z,100875.44
2018-05-15T23:48:56.023Z,100878.91
2018-05-15T23:51:23.559Z,100870.42
2018-05-15T23:53:51.075Z,100885.97
2018-05-15T23:56:18.600Z,100877.23
2018-05-15T23:58:46.120Z,100867.77
